sensor_id;sensor_type;location;lat;lon;timestamp;pressure;altitude;pressure_sealevel;temperature;humidity
62928;BME280;51070;52.236;-0.892;2022-07-29T00:01:06;101068.14;;;17.71;51.74
62928;BME280;51070;52.236;-0.892;2022-07-29T00:03:31;101065.52;;;17.69;52.15
62928;BME280;51070;52.236;-0.892;2022-07-29T00:05:57;101064.44;;;17.66;52.06
62928;BME280;51070;52.236;-0.892;2022-07-29T00:08:22;101065.80;;;17.62;52.35
62928;BME280;51070;52.236;-0.892;2022-07-29T00:10:48;101062.95;;;17.58;52.48
62928;BME280;51070;52.236;-0.892;2022-07-29T00:13:13;101064.31;;;17.56;52.41
62928;BME280;51070;52.236;-0.892;2022-07-29T00:15:39;101064.66;;;17.56;52.42
62928;BME280;51070;52.236;-0.892;2022-07-29T00:18:04;101059.41;;;17.56;52.54
62928;BME280;51070;52.236;-0.892;2022-07-29T00:20:30;101059.22;;;17.53;52.71
62928;BME280;51070;52.236;-0.892;2022-07-29T00:22:56;101061.11;;;17.51;52.90
62928;BME280;51070;52.236;-0.892;2022-07-29T00:25:21;101061.79;;;17.46;53.31
62928;BME280;51070;52.236;-0.892;2022-07-29T00:27:47;101061.40;;;17.43;53.45
62928;BME280;51070;52.236;-0.892;2022-07-29T00:30:12;101062.60;;;17.41;53.58
62928;BME280;51070;52.236;-0.892;2022-07-29T00:32:38;101061.03;;;17.41;53.71
62928;BME280;51070;52.236;-0.892;2022-07-29T00:35:04;101061.37;;;17.40;53.73
62928;BME280;51070;52.236;-0.892;2022-07-29T00:37:49;101058.02;;;17.39;53.88
62928;BME280;51070;52.236;-0.892;2022-07-29T00:40:14;101057.86;;;17.38;54.03
62928;BME280;51070;52.236;-0.892;2022-07-29T00:42:44;101058.54;;;17.36;54.17
62928;BME280;51070;52.236;-0.892;2022-07-29T00:45:11;101055.02;;;17.34;54.55
62928;BME280;51070;52.236;-0.892;2022-07-29T00:47:36;101052.54;;;17.30;54.59
62928;BME280;51070;52.236;-0.892;2022-07-29T00:50:04;101050.05;;;17.27;54.99
62928;BME280;51070;52.236;-0.892;2022-07-29T00:52:30;101047.42;;;17.25;55.08
62928;BME280;51070;52.236;-0.892;2022-07-29T00:54:56;101043.36;;;17.23;55.35
62928;BME280;51070;52.236;-0.892;2022-07-29T00:57:21;101040.39;;;17.20;55.60
62928;BME280;51070;52.236;-0.892;2022-07-29T00:59:47;101038.60;;;17.16;55.71
62928;BME280;51070;52.236;-0.892;2022-07-29T01:02:13;101038.40;;;17.14;55.68
62928;BME280;51070;52.236;-0.892;2022-07-29T01:04:39;101043.47;;;17.14;55.82
62928;BME280;51070;52.236;-0.892;2022-07-29T01:07:04;101046.94;;;17.12;55.93
62928;BME280;51070;52.236;-0.892;2022-07-29T01:09:32;101047.27;;;17.10;56.08
62928;BME280;51070;52.236;-0.892;2022-07-29T01:11:58;101051.27;;;17.08;56.21
62928;BME280;51070;52.236;-0.892;2022-07-29T01:14:25;101055.25;;;17.06;56.29
62928;BME280;51070;52.236;-0.892;2022-07-29T01:20:10;101058.91;;;16.90;56.81
62928;BME280;51070;52.236;-0.892;2022-07-29T01:22:44;101055.20;;;16.87;56.88
62928;BME280;51070;52.236;-0.892;2022-07-29T01:31:05;101049.01;;;16.79;57.50
62928;BME280;51070;52.236;-0.892;2022-07-29T01:33:36;101043.21;;;16.76;57.73
62928;BME280;51070;52.236;-0.892;2022-07-29T01:36:23;101047.20;;;16.75;57.92
62928;BME280;51070;52.236;-0.892;2022-07-29T01:39:02;101045.43;;;16.74;57.90
62928;BME280;51070;52.236;-0.892;2022-07-29T01:41:30;101045.08;;;16.72;58.10
62928;BME280;51070;52.236;-0.892;2022-07-29T01:44:05;101047.82;;;16.69;58.23
62928;BME280;51070;52.236;-0.892;2022-07-29T01:46:35;101048.34;;;16.68;58.33
62928;BME280;51070;52.236;-0.892;2022-07-29T01:49:17;101045.89;;;16.66;58.43
62928;BME280;51070;52.236;-0.892;2022-07-29T01:51:50;101048.31;;;16.66;58.49
62928;BME280;51070;52.236;-0.892;2022-07-29T01:57:01;101051.94;;;16.62;58.84
62928;BME280;51070;52.236;-0.892;2022-07-29T01:59:30;101051.59;;;16.62;58.85
62928;BME280;51070;52.236;-0.892;2022-07-29T02:01:58;101051.40;;;16.61;59.06
62928;BME280;51070;52.236;-0.892;2022-07-29T02:04:25;101056.44;;;16.60;59.18
62928;BME280;51070;52.236;-0.892;2022-07-29T02:06:54;101053.13;;;16.60;59.35
62928;BME280;51070;52.236;-0.892;2022-07-29T02:09:24;101052.80;;;16.61;59.41
62928;BME280;51070;52.236;-0.892;2022-07-29T02:11:53;101052.48;;;16.65;59.38
62928;BME280;51070;52.236;-0.892;2022-07-29T02:14:21;101048.52;;;16.67;59.35
62928;BME280;51070;52.236;-0.892;2022-07-29T02:16:50;101043.12;;;16.69;59.29
62928;BME280;51070;52.236;-0.892;2022-07-29T02:19:19;101040.86;;;16.70;59.32
62928;BME280;51070;52.236;-0.892;2022-07-29T02:21:46;101038.80;;;16.72;59.43
62928;BME280;51070;52.236;-0.892;2022-07-29T02:24:13;101040.55;;;16.72;59.50
62928;BME280;51070;52.236;-0.892;2022-07-29T02:26:41;101045.25;;;16.71;59.47
62928;BME280;51070;52.236;-0.892;2022-07-29T02:29:09;101048.01;;;16.69;59.62
62928;BME280;51070;52.236;-0.892;2022-07-29T02:31:37;101051.31;;;16.67;59.60
62928;BME280;51070;52.236;-0.892;2022-07-29T02:34:06;101051.98;;;16.65;59.59
62928;BME280;51070;52.236;-0.892;2022-07-29T02:36:34;101054.73;;;16.63;59.79
62928;BME280;51070;52.236;-0.892;2022-07-29T02:39:02;101055.19;;;16.59;60.00
62928;BME280;51070;52.236;-0.892;2022-07-29T02:42:07;101052.69;;;16.56;60.04
62928;BME280;51070;52.236;-0.892;2022-07-29T02:44:35;101054.41;;;16.55;60.20
62928;BME280;51070;52.236;-0.892;2022-07-29T02:47:12;101059.45;;;16.53;60.36
62928;BME280;51070;52.236;-0.892;2022-07-29T02:49:55;101056.30;;;16.52;60.43
62928;BME280;51070;52.236;-0.892;2022-07-29T02:52:44;101050.55;;;16.53;60.47
62928;BME280;51070;52.236;-0.892;2022-07-29T02:55:23;101049.84;;;16.53;60.39
62928;BME280;51070;52.236;-0.892;2022-07-29T02:58:02;101045.16;;;16.54;60.66
62928;BME280;51070;52.236;-0.892;2022-07-29T03:00:30;101041.52;;;16.56;60.53
62928;BME280;51070;52.236;-0.892;2022-07-29T03:02:59;101036.13;;;16.57;60.58
62928;BME280;51070;52.236;-0.892;2022-07-29T03:05:26;101034.63;;;16.60;60.71
62928;BME280;51070;52.236;-0.892;2022-07-29T03:08:01;101035.87;;;16.60;60.83
62928;BME280;51070;52.236;-0.892;2022-07-29T03:10:27;101037.23;;;16.59;60.89
62928;BME280;51070;52.236;-0.892;2022-07-29T03:12:55;101038.58;;;16.57;60.91
62928;BME280;51070;52.236;-0.892;2022-07-29T03:15:21;101038.52;;;16.54;60.88
62928;BME280;51070;52.236;-0.892;2022-07-29T03:17:47;101036.75;;;16.50;61.00
62928;BME280;51070;52.236;-0.892;2022-07-29T03:20:14;101032.00;;;16.48;61.00
62928;BME280;51070;52.236;-0.892;2022-07-29T03:22:41;101030.77;;;16.47;61.14
62928;BME280;51070;52.236;-0.892;2022-07-29T03:25:16;101031.95;;;16.44;61.29
62928;BME280;51070;52.236;-0.892;2022-07-29T03:27:42;101029.60;;;16.37;61.42
62928;BME280;51070;52.236;-0.892;2022-07-29T03:30:09;101029.86;;;16.31;61.54
62928;BME280;51070;52.236;-0.892;2022-07-29T03:32:36;101032.09;;;16.28;61.51
62928;BME280;51070;52.236;-0.892;2022-07-29T03:35:02;101034.66;;;16.25;61.55
62928;BME280;51070;52.236;-0.892;2022-07-29T03:37:28;101032.55;;;16.23;61.59
62928;BME280;51070;52.236;-0.892;2022-07-29T03:39:57;101034.27;;;16.22;61.67
62928;BME280;51070;52.236;-0.892;2022-07-29T03:42:28;101036.19;;;16.22;61.79
62928;BME280;51070;52.236;-0.892;2022-07-29T03:44:57;101035.84;;;16.23;61.94
62928;BME280;51070;52.236;-0.892;2022-07-29T03:47:25;101038.64;;;16.23;62.03
62928;BME280;51070;52.236;-0.892;2022-07-29T03:49:56;101041.45;;;16.25;61.98
62928;BME280;51070;52.236;-0.892;2022-07-29T03:52:25;101045.82;;;16.24;61.99
62928;BME280;51070;52.236;-0.892;2022-07-29T03:54:51;101051.21;;;16.23;62.03
62928;BME280;51070;52.236;-0.892;2022-07-29T03:57:20;101051.54;;;16.22;62.29
62928;BME280;51070;52.236;-0.892;2022-07-29T03:59:50;101054.47;;;16.20;62.29
62928;BME280;51070;52.236;-0.892;2022-07-29T04:02:16;101052.52;;;16.17;62.28
62928;BME280;51070;52.236;-0.892;2022-07-29T04:04:42;101054.74;;;16.16;62.32
62928;BME280;51070;52.236;-0.892;2022-07-29T04:07:12;101054.89;;;16.14;62.34
62928;BME280;51070;52.236;-0.892;2022-07-29T04:09:37;101059.77;;;16.13;62.35
62928;BME280;51070;52.236;-0.892;2022-07-29T04:12:04;101062.02;;;16.12;62.49
62928;BME280;51070;52.236;-0.892;2022-07-29T04:14:31;101060.39;;;16.09;62.65
62928;BME280;51070;52.236;-0.892;2022-07-29T04:16:57;101057.91;;;16.06;62.71
62928;BME280;51070;52.236;-0.892;2022-07-29T04:19:22;101052.98;;;16.04;62.71
62928;BME280;51070;52.236;-0.892;2022-07-29T04:21:48;101053.68;;;16.02;62.85
62928;BME280;51070;52.236;-0.892;2022-07-29T04:24:13;101055.55;;;16.00;62.97
62928;BME280;51070;52.236;-0.892;2022-07-29T04:26:39;101056.04;;;15.98;63.14
62928;BME280;51070;52.236;-0.892;2022-07-29T04:29:04;101055.00;;;15.98;63.23
62928;BME280;51070;52.236;-0.892;2022-07-29T04:31:30;101053.63;;;16.00;63.35
62928;BME280;51070;52.236;-0.892;2022-07-29T04:33:55;101053.80;;;16.00;63.38
62928;BME280;51070;52.236;-0.892;2022-07-29T04:36:20;101050.65;;;15.99;63.43
62928;BME280;51070;52.236;-0.892;2022-07-29T04:38:46;101053.08;;;15.99;63.50
62928;BME280;51070;52.236;-0.892;2022-07-29T04:41:11;101051.51;;;15.98;63.58
62928;BME280;51070;52.236;-0.892;2022-07-29T04:43:37;101046.80;;;15.98;63.51
62928;BME280;51070;52.236;-0.892;2022-07-29T04:46:03;101046.80;;;15.98;63.63
62928;BME280;51070;52.236;-0.892;2022-07-29T04:48:31;101044.37;;;15.98;63.72
62928;BME280;51070;52.236;-0.892;2022-07-29T04:50:57;101041.75;;;15.98;63.74
62928;BME280;51070;52.236;-0.892;2022-07-29T04:53:23;101043.14;;;15.97;63.95
62928;BME280;51070;52.236;-0.892;2022-07-29T04:55:48;101050.46;;;15.99;64.02
62928;BME280;51070;52.236;-0.892;2022-07-29T04:58:14;101049.48;;;16.02;63.95
62928;BME280;51070;52.236;-0.892;2022-07-29T05:00:40;101054.24;;;16.05;64.02
62928;BME280;51070;52.236;-0.892;2022-07-29T05:03:05;101054.84;;;16.11;63.96
62928;BME280;51070;52.236;-0.892;2022-07-29T05:05:31;101054.90;;;16.15;63.83
62928;BME280;51070;52.236;-0.892;2022-07-29T05:07:56;101054.27;;;16.19;63.79
62928;BME280;51070;52.236;-0.892;2022-07-29T05:10:22;101060.41;;;16.22;63.73
62928;BME280;51070;52.236;-0.892;2022-07-29T05:12:47;101060.80;;;16.23;63.63
62928;BME280;51070;52.236;-0.892;2022-07-29T05:15:14;101063.94;;;16.25;63.59
62928;BME280;51070;52.236;-0.892;2022-07-29T05:17:39;101067.09;;;16.26;63.87
62928;BME280;51070;52.236;-0.892;2022-07-29T05:20:06;101070.10;;;16.27;63.64
62928;BME280;51070;52.236;-0.892;2022-07-29T05:22:31;101073.95;;;16.29;63.74
62928;BME280;51070;52.236;-0.892;2022-07-29T05:24:57;101077.11;;;16.31;63.60
62928;BME280;51070;52.236;-0.892;2022-07-29T05:27:22;101072.92;;;16.31;63.63
62928;BME280;51070;52.236;-0.892;2022-07-29T05:29:48;101076.99;;;16.34;63.68
62928;BME280;51070;52.236;-0.892;2022-07-29T05:32:13;101080.20;;;16.39;63.54
62928;BME280;51070;52.236;-0.892;2022-07-29T05:34:39;101080.81;;;16.46;63.64
62928;BME280;51070;52.236;-0.892;2022-07-29T05:37:05;101079.02;;;16.55;63.48
62928;BME280;51070;52.236;-0.892;2022-07-29T05:39:30;101075.49;;;16.63;63.52
62928;BME280;51070;52.236;-0.892;2022-07-29T05:41:56;101077.19;;;16.71;63.25
62928;BME280;51070;52.236;-0.892;2022-07-29T05:44:21;101079.05;;;16.80;63.04
62928;BME280;51070;52.236;-0.892;2022-07-29T05:46:47;101081.58;;;16.88;62.87
62928;BME280;51070;52.236;-0.892;2022-07-29T05:49:12;101084.91;;;16.90;62.90
62928;BME280;51070;52.236;-0.892;2022-07-29T05:51:38;101080.73;;;16.91;63.04
62928;BME280;51070;52.236;-0.892;2022-07-29T05:54:03;101078.00;;;16.96;62.76
62928;BME280;51070;52.236;-0.892;2022-07-29T05:56:29;101081.91;;;17.02;62.73
62928;BME280;51070;52.236;-0.892;2022-07-29T05:58:54;101084.52;;;17.15;62.46
62928;BME280;51070;52.236;-0.892;2022-07-29T06:01:20;101087.11;;;17.29;62.11
62928;BME280;51070;52.236;-0.892;2022-07-29T06:03:45;101091.45;;;17.44;61.73
62928;BME280;51070;52.236;-0.892;2022-07-29T06:06:11;101095.29;;;17.59;61.48
62928;BME280;51070;52.236;-0.892;2022-07-29T06:08:37;101091.40;;;17.72;61.17
62928;BME280;51070;52.236;-0.892;2022-07-29T06:11:03;101096.42;;;17.86;61.07
62928;BME280;51070;52.236;-0.892;2022-07-29T06:13:29;101093.73;;;17.98;60.85
62928;BME280;51070;52.236;-0.892;2022-07-29T06:15:55;101093.64;;;18.09;60.43
62928;BME280;51070;52.236;-0.892;2022-07-29T06:18:21;101094.40;;;18.17;60.18
62928;BME280;51070;52.236;-0.892;2022-07-29T06:20:52;101094.24;;;18.23;59.96
62928;BME280;51070;52.236;-0.892;2022-07-29T06:23:19;101093.96;;;18.32;59.73
62928;BME280;51070;52.236;-0.892;2022-07-29T06:25:44;101090.52;;;18.41;59.42
62928;BME280;51070;52.236;-0.892;2022-07-29T06:28:11;101085.67;;;18.51;59.26
62928;BME280;51070;52.236;-0.892;2022-07-29T06:30:37;101081.72;;;18.57;59.41
62928;BME280;51070;52.236;-0.892;2022-07-29T06:33:03;101080.86;;;18.60;59.23
62928;BME280;51070;52.236;-0.892;2022-07-29T06:35:29;101085.60;;;18.63;59.03
62928;BME280;51070;52.236;-0.892;2022-07-29T06:37:54;101085.27;;;18.66;58.74
62928;BME280;51070;52.236;-0.892;2022-07-29T06:40:20;101083.88;;;19.23;57.82
62928;BME280;51070;52.236;-0.892;2022-07-29T06:43:04;101082.73;;;21.25;54.35
62928;BME280;51070;52.236;-0.892;2022-07-29T06:45:33;101080.77;;;22.76;51.37
62928;BME280;51070;52.236;-0.892;2022-07-29T06:47:59;101080.58;;;22.78;50.81
62928;BME280;51070;52.236;-0.892;2022-07-29T06:50:24;101087.83;;;22.59;51.09
62928;BME280;51070;52.236;-0.892;2022-07-29T06:52:50;101087.80;;;23.31;49.84
62928;BME280;51070;52.236;-0.892;2022-07-29T06:55:15;101088.41;;;24.06;48.26
62928;BME280;51070;52.236;-0.892;2022-07-29T06:57:41;101089.02;;;24.94;46.52
62928;BME280;51070;52.236;-0.892;2022-07-29T07:00:07;101092.38;;;26.15;43.75
62928;BME280;51070;52.236;-0.892;2022-07-29T07:02:33;101088.24;;;27.47;42.02
62928;BME280;51070;52.236;-0.892;2022-07-29T07:04:58;101087.69;;;28.68;39.67
62928;BME280;51070;52.236;-0.892;2022-07-29T07:07:24;101085.52;;;29.48;36.72
62928;BME280;51070;52.236;-0.892;2022-07-29T07:09:50;101093.06;;;30.07;36.64
62928;BME280;51070;52.236;-0.892;2022-07-29T07:12:15;101091.05;;;30.69;35.51
62928;BME280;51070;52.236;-0.892;2022-07-29T07:14:41;101091.00;;;31.20;34.87
62928;BME280;51070;52.236;-0.892;2022-07-29T07:17:07;101090.23;;;31.87;33.87
62928;BME280;51070;52.236;-0.892;2022-07-29T07:19:33;101096.39;;;32.41;31.91
62928;BME280;51070;52.236;-0.892;2022-07-29T07:21:58;101091.36;;;32.82;31.49
62928;BME280;51070;52.236;-0.892;2022-07-29T07:24:24;101094.90;;;33.02;30.65
62928;BME280;51070;52.236;-0.892;2022-07-29T07:26:50;101097.13;;;32.41;30.84
62928;BME280;51070;52.236;-0.892;2022-07-29T07:29:16;101105.92;;;31.74;31.95
62928;BME280;51070;52.236;-0.892;2022-07-29T07:31:41;101105.89;;;32.20;31.12
62928;BME280;51070;52.236;-0.892;2022-07-29T07:34:07;101100.95;;;32.93;30.25
62928;BME280;51070;52.236;-0.892;2022-07-29T07:36:32;101106.55;;;33.50;29.53
62928;BME280;51070;52.236;-0.892;2022-07-29T07:38:58;101107.81;;;33.72;29.00
62928;BME280;51070;52.236;-0.892;2022-07-29T07:41:23;101107.02;;;33.61;28.47
62928;BME280;51070;52.236;-0.892;2022-07-29T07:43:49;101106.77;;;33.65;29.06
62928;BME280;51070;52.236;-0.892;2022-07-29T07:46:15;101107.57;;;34.00;28.59
62928;BME280;51070;52.236;-0.892;2022-07-29T07:48:40;101106.13;;;33.48;29.04
62928;BME280;51070;52.236;-0.892;2022-07-29T07:51:06;101109.84;;;33.71;28.59
62928;BME280;51070;52.236;-0.892;2022-07-29T07:53:33;101110.13;;;34.41;27.86
62928;BME280;51070;52.236;-0.892;2022-07-29T07:55:59;101102.20;;;35.00;26.75
62928;BME280;51070;52.236;-0.892;2022-07-29T07:58:25;101101.48;;;35.76;26.78
62928;BME280;51070;52.236;-0.892;2022-07-29T08:00:50;101103.14;;;36.34;25.81
62928;BME280;51070;52.236;-0.892;2022-07-29T08:03:16;101099.84;;;36.35;25.81
62928;BME280;51070;52.236;-0.892;2022-07-29T08:05:41;101094.92;;;35.86;26.16
62928;BME280;51070;52.236;-0.892;2022-07-29T08:08:07;101094.54;;;35.65;26.22
62928;BME280;51070;52.236;-0.892;2022-07-29T08:10:33;101096.38;;;35.96;25.46
62928;BME280;51070;52.236;-0.892;2022-07-29T08:13:17;101095.33;;;37.11;24.51
62928;BME280;51070;52.236;-0.892;2022-07-29T08:15:43;101100.20;;;37.55;24.07
62928;BME280;51070;52.236;-0.892;2022-07-29T08:18:11;101102.77;;;37.69;23.76
62928;BME280;51070;52.236;-0.892;2022-07-29T08:20:37;101099.14;;;37.16;23.92
62928;BME280;51070;52.236;-0.892;2022-07-29T08:23:05;101101.20;;;36.47;24.36
62928;BME280;51070;52.236;-0.892;2022-07-29T08:25:32;101100.87;;;35.61;24.98
62928;BME280;51070;52.236;-0.892;2022-07-29T08:27:58;101107.15;;;34.63;25.55
62928;BME280;51070;52.236;-0.892;2022-07-29T08:30:24;101107.02;;;33.91;25.93
62928;BME280;51070;52.236;-0.892;2022-07-29T08:32:50;101109.73;;;33.60;26.29
62928;BME280;51070;52.236;-0.892;2022-07-29T08:35:18;101102.70;;;33.33;26.59
62928;BME280;51070;52.236;-0.892;2022-07-29T08:37:44;101100.91;;;33.20;26.81
62928;BME280;51070;52.236;-0.892;2022-07-29T08:40:10;101101.83;;;33.03;26.82
62928;BME280;51070;52.236;-0.892;2022-07-29T08:42:36;101104.89;;;32.73;26.83
62928;BME280;51070;52.236;-0.892;2022-07-29T08:45:03;101108.14;;;32.36;27.34
62928;BME280;51070;52.236;-0.892;2022-07-29T08:47:29;101102.70;;;31.95;27.87
62928;BME280;51070;52.236;-0.892;2022-07-29T08:49:54;101101.95;;;31.49;28.97
62928;BME280;51070;52.236;-0.892;2022-07-29T08:52:21;101103.23;;;30.95;29.37
62928;BME280;51070;52.236;-0.892;2022-07-29T08:54:52;101107.55;;;30.55;29.74
62928;BME280;51070;52.236;-0.892;2022-07-29T08:57:18;101108.48;;;30.22;29.79
62928;BME280;51070;52.236;-0.892;2022-07-29T08:59:46;101105.77;;;30.59;29.43
62928;BME280;51070;52.236;-0.892;2022-07-29T09:02:15;101099.80;;;31.12;29.61
62928;BME280;51070;52.236;-0.892;2022-07-29T09:04:44;101099.66;;;32.05;28.87
62928;BME280;51070;52.236;-0.892;2022-07-29T09:07:17;101100.45;;;33.47;27.06
62928;BME280;51070;52.236;-0.892;2022-07-29T09:09:43;101098.01;;;34.58;25.84
62928;BME280;51070;52.236;-0.892;2022-07-29T09:12:09;101096.30;;;35.60;24.86
62928;BME280;51070;52.236;-0.892;2022-07-29T09:14:40;101099.44;;;35.83;24.53
62928;BME280;51070;52.236;-0.892;2022-07-29T09:17:07;101101.29;;;36.11;24.68
62928;BME280;51070;52.236;-0.892;2022-07-29T09:19:34;101100.06;;;36.06;23.73
62928;BME280;51070;52.236;-0.892;2022-07-29T09:22:02;101097.26;;;35.70;23.06
62928;BME280;51070;52.236;-0.892;2022-07-29T09:24:46;101101.59;;;35.23;24.42
62928;BME280;51070;52.236;-0.892;2022-07-29T09:27:21;101095.76;;;35.05;24.21
62928;BME280;51070;52.236;-0.892;2022-07-29T09:29:58;101093.35;;;35.09;24.31
62928;BME280;51070;52.236;-0.892;2022-07-29T09:32:24;101094.98;;;34.74;24.30
62928;BME280;51070;52.236;-0.892;2022-07-29T09:34:51;101094.43;;;34.80;24.28
62928;BME280;51070;52.236;-0.892;2022-07-29T09:37:26;101086.86;;;35.40;23.71
62928;BME280;51070;52.236;-0.892;2022-07-29T09:39:52;101087.75;;;35.67;23.68
62928;BME280;51070;52.236;-0.892;2022-07-29T09:42:27;101086.88;;;35.72;24.06
62928;BME280;51070;52.236;-0.892;2022-07-29T09:44:52;101088.87;;;35.48;23.90
62928;BME280;51070;52.236;-0.892;2022-07-29T09:47:18;101087.25;;;35.69;23.08
62928;BME280;51070;52.236;-0.892;2022-07-29T09:49:54;101087.55;;;36.28;22.55
62928;BME280;51070;52.236;-0.892;2022-07-29T09:52:20;101083.58;;;36.59;22.64
62928;BME280;51070;52.236;-0.892;2022-07-29T09:54:46;101081.97;;;36.17;22.36
62928;BME280;51070;52.236;-0.892;2022-07-29T09:57:21;101081.17;;;35.41;21.89
62928;BME280;51070;52.236;-0.892;2022-07-29T09:59:55;101084.20;;;34.92;22.28
62928;BME280;51070;52.236;-0.892;2022-07-29T10:02:21;101085.83;;;34.54;22.97
62928;BME280;51070;52.236;-0.892;2022-07-29T10:04:46;101078.09;;;34.72;23.04
62928;BME280;51070;52.236;-0.892;2022-07-29T10:07:12;101081.20;;;34.77;23.23
62928;BME280;51070;52.236;-0.892;2022-07-29T10:09:37;101080.70;;;34.99;23.31
62928;BME280;51070;52.236;-0.892;2022-07-29T10:12:06;101083.04;;;35.43;23.19
62928;BME280;51070;52.236;-0.892;2022-07-29T10:14:33;101080.63;;;35.72;22.41
62928;BME280;51070;52.236;-0.892;2022-07-29T10:16:59;101080.39;;;35.70;22.38
62928;BME280;51070;52.236;-0.892;2022-07-29T10:19:25;101075.35;;;35.81;22.74
62928;BME280;51070;52.236;-0.892;2022-07-29T10:21:52;101078.76;;;35.94;21.79
62928;BME280;51070;52.236;-0.892;2022-07-29T10:24:17;101079.95;;;36.34;21.92
62928;BME280;51070;52.236;-0.892;2022-07-29T10:26:43;101083.64;;;36.53;20.45
62928;BME280;51070;52.236;-0.892;2022-07-29T10:29:11;101082.77;;;36.24;20.74
62928;BME280;51070;52.236;-0.892;2022-07-29T10:31:40;101081.98;;;35.94;22.15
62928;BME280;51070;52.236;-0.892;2022-07-29T10:37:08;101081.98;;;35.91;21.83
62928;BME280;51070;52.236;-0.892;2022-07-29T10:42:24;101077.80;;;35.54;20.72
62928;BME280;51070;52.236;-0.892;2022-07-29T10:44:50;101076.36;;;34.82;21.28
62928;BME280;51070;52.236;-0.892;2022-07-29T10:47:22;101080.02;;;34.70;22.35
62928;BME280;51070;52.236;-0.892;2022-07-29T10:50:21;101080.04;;;34.81;22.28
62928;BME280;51070;52.236;-0.892;2022-07-29T10:58:21;101087.16;;;34.30;23.47
62928;BME280;51070;52.236;-0.892;2022-07-29T11:00:46;101082.69;;;34.44;22.65
62928;BME280;51070;52.236;-0.892;2022-07-29T11:05:56;101081.67;;;34.29;23.58
62928;BME280;51070;52.236;-0.892;2022-07-29T11:08:22;101080.94;;;34.05;24.09
62928;BME280;51070;52.236;-0.892;2022-07-29T11:10:49;101080.75;;;34.05;23.94
62928;BME280;51070;52.236;-0.892;2022-07-29T11:15:59;101083.26;;;33.87;23.06
62928;BME280;51070;52.236;-0.892;2022-07-29T11:18:24;101081.36;;;33.52;22.10
62928;BME280;51070;52.236;-0.892;2022-07-29T11:20:50;101074.71;;;33.11;23.11
62928;BME280;51070;52.236;-0.892;2022-07-29T11:26:12;101076.25;;;32.57;24.20
62928;BME280;51070;52.236;-0.892;2022-07-29T11:28:32;101073.73;;;32.57;25.22
62928;BME280;51070;52.236;-0.892;2022-07-29T11:30:59;101071.33;;;32.75;24.71
62928;BME280;51070;52.236;-0.892;2022-07-29T11:38:38;101069.92;;;32.38;23.93
62928;BME280;51070;52.236;-0.892;2022-07-29T11:43:55;101071.79;;;31.56;25.24
62928;BME280;51070;52.236;-0.892;2022-07-29T11:49:04;101063.56;;;31.60;26.55
62928;BME280;51070;52.236;-0.892;2022-07-29T11:51:30;101062.80;;;31.72;26.12
62928;BME280;51070;52.236;-0.892;2022-07-29T11:53:56;101059.31;;;31.87;25.89
62928;BME280;51070;52.236;-0.892;2022-07-29T11:56:22;101058.55;;;31.88;25.20
62928;BME280;51070;52.236;-0.892;2022-07-29T11:58:48;101063.15;;;31.72;25.65
62928;BME280;51070;52.236;-0.892;2022-07-29T12:01:14;101058.55;;;31.60;25.67
62928;BME280;51070;52.236;-0.892;2022-07-29T12:03:41;101050.98;;;31.46;26.27
62928;BME280;51070;52.236;-0.892;2022-07-29T12:06:13;101049.69;;;31.26;25.49
62928;BME280;51070;52.236;-0.892;2022-07-29T12:08:41;101049.58;;;31.06;25.78
62928;BME280;51070;52.236;-0.892;2022-07-29T12:11:14;101051.41;;;30.93;25.89
62928;BME280;51070;52.236;-0.892;2022-07-29T12:13:39;101049.12;;;30.85;26.19
62928;BME280;51070;52.236;-0.892;2022-07-29T12:16:05;101046.75;;;30.74;26.73
62928;BME280;51070;52.236;-0.892;2022-07-29T12:18:30;101049.83;;;30.70;26.58
62928;BME280;51070;52.236;-0.892;2022-07-29T12:20:58;101048.65;;;30.64;27.10
62928;BME280;51070;52.236;-0.892;2022-07-29T12:23:24;101043.85;;;30.68;27.14
62928;BME280;51070;52.236;-0.892;2022-07-29T12:25:49;101037.47;;;30.71;26.58
62928;BME280;51070;52.236;-0.892;2022-07-29T12:28:15;101032.28;;;30.75;26.74
62928;BME280;51070;52.236;-0.892;2022-07-29T12:30:44;101026.30;;;30.80;26.48
62928;BME280;51070;52.236;-0.892;2022-07-29T12:33:31;101023.04;;;30.82;26.48
62928;BME280;51070;52.236;-0.892;2022-07-29T12:35:57;101016.25;;;30.82;26.45
62928;BME280;51070;52.236;-0.892;2022-07-29T12:38:23;101014.34;;;30.81;26.48
62928;BME280;51070;52.236;-0.892;2022-07-29T12:40:48;101018.69;;;30.79;26.60
62928;BME280;51070;52.236;-0.892;2022-07-29T12:43:19;101022.57;;;30.73;26.88
62928;BME280;51070;52.236;-0.892;2022-07-29T12:45:51;101025.46;;;30.76;26.68
62928;BME280;51070;52.236;-0.892;2022-07-29T12:48:17;101023.41;;;30.70;26.59
62928;BME280;51070;52.236;-0.892;2022-07-29T12:50:52;101018.56;;;30.43;26.73
62928;BME280;51070;52.236;-0.892;2022-07-29T12:53:18;101020.05;;;30.14;27.50
62928;BME280;51070;52.236;-0.892;2022-07-29T12:55:45;101021.02;;;29.87;27.37
62928;BME280;51070;52.236;-0.892;2022-07-29T12:58:29;101021.52;;;29.84;27.61
62928;BME280;51070;52.236;-0.892;2022-07-29T13:01:02;101020.61;;;29.97;27.65
62928;BME280;51070;52.236;-0.892;2022-07-29T13:03:27;101016.21;;;30.16;27.52
62928;BME280;51070;52.236;-0.892;2022-07-29T13:05:53;101016.66;;;30.38;27.51
62928;BME280;51070;52.236;-0.892;2022-07-29T13:08:18;101014.14;;;30.55;27.22
62928;BME280;51070;52.236;-0.892;2022-07-29T13:10:45;101013.38;;;30.71;27.52
62928;BME280;51070;52.236;-0.892;2022-07-29T13:13:11;101018.30;;;30.72;27.14
62928;BME280;51070;52.236;-0.892;2022-07-29T13:15:38;101020.21;;;30.55;27.16
62928;BME280;51070;52.236;-0.892;2022-07-29T13:18:05;101020.69;;;30.35;27.71
62928;BME280;51070;52.236;-0.892;2022-07-29T13:20:50;101024.81;;;30.27;27.44
62928;BME280;51070;52.236;-0.892;2022-07-29T13:23:15;101023.85;;;30.29;27.48
62928;BME280;51070;52.236;-0.892;2022-07-29T13:25:40;101026.64;;;30.46;27.08